Terminal Aerodrome Forecast
Issued by NWS Charleston, WV

Current Version | Previous Version | Graphics & Text | Print | Product List | Glossary On
Versions: 1 2 3 4 5 6 7 8 9 10 11 12 13 14 15 16 17 18 19 20 21 22 23 24 25 26 27 28 29
000
FTUS41 KRLX 201000 AAC
TAFCRW
TAF AMD
KCRW 201023Z 2010/2106 00000KT 6SM BR BKN035
      TEMPO 2010/2012 4SM SHRA BKN015
     FM201200 VRB03KT P6SM BKN030
     FM201600 VRB03KT P6SM BKN035
     FM202300 00000KT P6SM SCT035=

USA.gov is the U.S. government's official web portal to all federal, state and local government web resources and services.